sensor_id;sensor_type;location;lat;lon;timestamp;P1;durP1;ratioP1;P2;durP2;ratioP2
4089;SDS011;2059;48.538;12.146;2023-08-30T00:01:56;3.40;;;3.27;;
4089;SDS011;2059;48.538;12.146;2023-08-30T00:06:58;3.80;;;3.60;;
4089;SDS011;2059;48.538;12.146;2023-08-30T00:11:59;4.17;;;3.97;;
4089;SDS011;2059;48.538;12.146;2023-08-30T00:17:02;2.90;;;2.80;;
4089;SDS011;2059;48.538;12.146;2023-08-30T00:22:04;3.70;;;3.50;;
4089;SDS011;2059;48.538;12.146;2023-08-30T00:27:07;3.30;;;3.13;;
4089;SDS011;2059;48.538;12.146;2023-08-30T00:32:10;3.80;;;3.60;;
4089;SDS011;2059;48.538;12.146;2023-08-30T00:37:12;4.10;;;3.90;;
4089;SDS011;2059;48.538;12.146;2023-08-30T00:42:13;3.80;;;3.60;;
4089;SDS011;2059;48.538;12.146;2023-08-30T00:47:16;4.23;;;4.00;;
4089;SDS011;2059;48.538;12.146;2023-08-30T00:52:18;4.40;;;4.10;;
4089;SDS011;2059;48.538;12.146;2023-08-30T00:57:20;4.57;;;4.17;;
4089;SDS011;2059;48.538;12.146;2023-08-30T01:02:23;4.10;;;3.80;;
4089;SDS011;2059;48.538;12.146;2023-08-30T01:07:25;3.90;;;3.70;;
4089;SDS011;2059;48.538;12.146;2023-08-30T01:12:29;3.80;;;3.60;;
4089;SDS011;2059;48.538;12.146;2023-08-30T01:17:37;3.73;;;3.57;;
4089;SDS011;2059;48.538;12.146;2023-08-30T01:22:43;4.57;;;3.20;;
4089;SDS011;2059;48.538;12.146;2023-08-30T01:27:50;3.30;;;3.10;;
4089;SDS011;2059;48.538;12.146;2023-08-30T01:32:53;4.97;;;4.67;;
4089;SDS011;2059;48.538;12.146;2023-08-30T01:37:56;4.97;;;4.77;;
4089;SDS011;2059;48.538;12.146;2023-08-30T01:42:59;5.00;;;4.70;;
4089;SDS011;2059;48.538;12.146;2023-08-30T01:48:04;4.50;;;4.30;;
4089;SDS011;2059;48.538;12.146;2023-08-30T01:53:08;4.20;;;4.00;;
4089;SDS011;2059;48.538;12.146;2023-08-30T01:58:13;4.43;;;4.23;;
4089;SDS011;2059;48.538;12.146;2023-08-30T02:03:15;4.73;;;4.43;;
4089;SDS011;2059;48.538;12.146;2023-08-30T02:08:17;4.07;;;3.87;;
4089;SDS011;2059;48.538;12.146;2023-08-30T02:13:27;5.03;;;4.80;;
4089;SDS011;2059;48.538;12.146;2023-08-30T02:18:31;5.00;;;4.70;;
4089;SDS011;2059;48.538;12.146;2023-08-30T02:23:33;5.03;;;4.70;;
4089;SDS011;2059;48.538;12.146;2023-08-30T02:28:36;4.80;;;4.50;;
4089;SDS011;2059;48.538;12.146;2023-08-30T02:33:38;4.60;;;4.30;;
4089;SDS011;2059;48.538;12.146;2023-08-30T02:38:40;4.63;;;4.40;;
4089;SDS011;2059;48.538;12.146;2023-08-30T02:43:43;5.20;;;4.80;;
4089;SDS011;2059;48.538;12.146;2023-08-30T02:48:45;5.13;;;4.83;;
4089;SDS011;2059;48.538;12.146;2023-08-30T02:53:47;5.20;;;4.80;;
4089;SDS011;2059;48.538;12.146;2023-08-30T02:58:50;5.57;;;5.20;;
4089;SDS011;2059;48.538;12.146;2023-08-30T03:03:51;6.03;;;5.63;;
4089;SDS011;2059;48.538;12.146;2023-08-30T03:08:53;5.60;;;5.20;;
4089;SDS011;2059;48.538;12.146;2023-08-30T03:13:56;5.80;;;5.50;;
4089;SDS011;2059;48.538;12.146;2023-08-30T03:18:58;5.90;;;5.60;;
4089;SDS011;2059;48.538;12.146;2023-08-30T03:24:00;6.40;;;6.00;;
4089;SDS011;2059;48.538;12.146;2023-08-30T03:29:03;4.27;;;3.97;;
4089;SDS011;2059;48.538;12.146;2023-08-30T03:34:05;6.50;;;6.00;;
4089;SDS011;2059;48.538;12.146;2023-08-30T03:39:07;4.80;;;4.50;;
4089;SDS011;2059;48.538;12.146;2023-08-30T03:44:10;4.50;;;4.13;;
4089;SDS011;2059;48.538;12.146;2023-08-30T03:49:12;4.33;;;4.07;;
4089;SDS011;2059;48.538;12.146;2023-08-30T03:54:13;4.43;;;4.13;;
4089;SDS011;2059;48.538;12.146;2023-08-30T03:59:17;5.20;;;4.80;;
4089;SDS011;2059;48.538;12.146;2023-08-30T04:04:19;4.10;;;3.90;;
4089;SDS011;2059;48.538;12.146;2023-08-30T04:09:21;5.30;;;4.90;;
4089;SDS011;2059;48.538;12.146;2023-08-30T04:14:24;4.57;;;4.27;;
4089;SDS011;2059;48.538;12.146;2023-08-30T04:19:26;5.30;;;5.00;;
4089;SDS011;2059;48.538;12.146;2023-08-30T04:24:27;6.80;;;6.30;;
4089;SDS011;2059;48.538;12.146;2023-08-30T04:29:30;5.57;;;5.20;;
4089;SDS011;2059;48.538;12.146;2023-08-30T04:34:32;6.57;;;6.17;;
4089;SDS011;2059;48.538;12.146;2023-08-30T04:39:34;6.60;;;6.10;;
4089;SDS011;2059;48.538;12.146;2023-08-30T04:44:37;5.80;;;5.40;;
4089;SDS011;2059;48.538;12.146;2023-08-30T04:49:38;6.00;;;5.70;;
4089;SDS011;2059;48.538;12.146;2023-08-30T04:54:40;7.70;;;7.13;;
4089;SDS011;2059;48.538;12.146;2023-08-30T04:59:44;7.70;;;6.90;;
4089;SDS011;2059;48.538;12.146;2023-08-30T05:04:46;6.50;;;6.10;;
4089;SDS011;2059;48.538;12.146;2023-08-30T05:09:48;7.00;;;6.50;;
4089;SDS011;2059;48.538;12.146;2023-08-30T05:14:51;6.80;;;6.30;;
4089;SDS011;2059;48.538;12.146;2023-08-30T05:19:52;7.07;;;6.57;;
4089;SDS011;2059;48.538;12.146;2023-08-30T05:24:54;7.70;;;7.00;;
4089;SDS011;2059;48.538;12.146;2023-08-30T05:29:57;7.67;;;7.00;;
4089;SDS011;2059;48.538;12.146;2023-08-30T05:34:59;8.10;;;7.50;;
4089;SDS011;2059;48.538;12.146;2023-08-30T05:40:01;7.47;;;6.90;;
4089;SDS011;2059;48.538;12.146;2023-08-30T05:45:05;8.00;;;7.30;;
4089;SDS011;2059;48.538;12.146;2023-08-30T05:50:08;7.70;;;7.20;;
4089;SDS011;2059;48.538;12.146;2023-08-30T05:55:10;7.50;;;6.90;;
4089;SDS011;2059;48.538;12.146;2023-08-30T06:00:14;7.20;;;6.67;;
4089;SDS011;2059;48.538;12.146;2023-08-30T06:05:16;7.50;;;7.00;;
4089;SDS011;2059;48.538;12.146;2023-08-30T06:10:17;7.93;;;7.23;;
4089;SDS011;2059;48.538;12.146;2023-08-30T06:15:20;8.20;;;7.60;;
4089;SDS011;2059;48.538;12.146;2023-08-30T06:20:22;6.70;;;6.17;;
4089;SDS011;2059;48.538;12.146;2023-08-30T06:25:24;7.17;;;6.57;;
4089;SDS011;2059;48.538;12.146;2023-08-30T06:30:27;6.63;;;6.13;;
4089;SDS011;2059;48.538;12.146;2023-08-30T06:35:29;6.80;;;6.30;;
4089;SDS011;2059;48.538;12.146;2023-08-30T06:40:31;7.43;;;6.83;;
4089;SDS011;2059;48.538;12.146;2023-08-30T06:45:35;7.60;;;6.90;;
4089;SDS011;2059;48.538;12.146;2023-08-30T06:50:36;6.13;;;5.53;;
4089;SDS011;2059;48.538;12.146;2023-08-30T06:55:38;6.90;;;6.40;;
4089;SDS011;2059;48.538;12.146;2023-08-30T07:00:41;5.57;;;5.13;;
4089;SDS011;2059;48.538;12.146;2023-08-30T07:05:43;6.60;;;6.10;;
4089;SDS011;2059;48.538;12.146;2023-08-30T07:10:47;6.77;;;6.27;;
4089;SDS011;2059;48.538;12.146;2023-08-30T07:15:50;7.07;;;6.50;;
4089;SDS011;2059;48.538;12.146;2023-08-30T07:20:52;4.77;;;4.27;;
4089;SDS011;2059;48.538;12.146;2023-08-30T07:25:54;5.77;;;5.27;;
4089;SDS011;2059;48.538;12.146;2023-08-30T07:31:03;5.40;;;4.77;;
4089;SDS011;2059;48.538;12.146;2023-08-30T07:36:04;4.83;;;4.43;;
4089;SDS011;2059;48.538;12.146;2023-08-30T07:41:07;5.83;;;5.27;;
4089;SDS011;2059;48.538;12.146;2023-08-30T07:46:10;5.40;;;5.00;;
4089;SDS011;2059;48.538;12.146;2023-08-30T07:51:11;5.10;;;4.70;;
4089;SDS011;2059;48.538;12.146;2023-08-30T07:56:13;5.93;;;5.53;;
4089;SDS011;2059;48.538;12.146;2023-08-30T08:01:16;5.40;;;5.10;;
4089;SDS011;2059;48.538;12.146;2023-08-30T08:06:18;5.73;;;5.33;;
4089;SDS011;2059;48.538;12.146;2023-08-30T08:11:20;5.10;;;4.80;;
4089;SDS011;2059;48.538;12.146;2023-08-30T08:16:23;5.20;;;4.80;;
4089;SDS011;2059;48.538;12.146;2023-08-30T08:21:24;5.23;;;4.83;;
4089;SDS011;2059;48.538;12.146;2023-08-30T08:26:26;4.63;;;4.33;;
4089;SDS011;2059;48.538;12.146;2023-08-30T08:31:29;5.53;;;5.13;;
4089;SDS011;2059;48.538;12.146;2023-08-30T08:36:31;5.10;;;4.70;;
4089;SDS011;2059;48.538;12.146;2023-08-30T08:41:35;6.73;;;6.33;;
4089;SDS011;2059;48.538;12.146;2023-08-30T08:46:42;4.43;;;4.13;;
4089;SDS011;2059;48.538;12.146;2023-08-30T08:51:44;5.67;;;5.37;;
4089;SDS011;2059;48.538;12.146;2023-08-30T08:56:46;4.90;;;4.60;;
4089;SDS011;2059;48.538;12.146;2023-08-30T09:01:50;4.87;;;4.47;;
4089;SDS011;2059;48.538;12.146;2023-08-30T09:06:52;4.20;;;4.00;;
4089;SDS011;2059;48.538;12.146;2023-08-30T09:11:55;4.07;;;3.83;;
4089;SDS011;2059;48.538;12.146;2023-08-30T09:16:59;5.10;;;4.70;;
4089;SDS011;2059;48.538;12.146;2023-08-30T09:22:02;5.57;;;5.17;;
4089;SDS011;2059;48.538;12.146;2023-08-30T09:27:04;4.37;;;4.07;;
4089;SDS011;2059;48.538;12.146;2023-08-30T09:32:07;4.43;;;4.13;;
4089;SDS011;2059;48.538;12.146;2023-08-30T09:37:09;3.97;;;3.77;;
4089;SDS011;2059;48.538;12.146;2023-08-30T09:42:20;4.73;;;4.30;;
4089;SDS011;2059;48.538;12.146;2023-08-30T09:47:25;4.37;;;4.17;;
4089;SDS011;2059;48.538;12.146;2023-08-30T09:52:27;4.20;;;4.00;;
4089;SDS011;2059;48.538;12.146;2023-08-30T09:57:31;4.63;;;4.33;;
4089;SDS011;2059;48.538;12.146;2023-08-30T10:02:35;5.00;;;4.70;;
4089;SDS011;2059;48.538;12.146;2023-08-30T10:07:37;4.23;;;4.00;;
4089;SDS011;2059;48.538;12.146;2023-08-30T10:12:40;4.20;;;4.00;;
4089;SDS011;2059;48.538;12.146;2023-08-30T10:17:48;8.10;;;7.70;;
4089;SDS011;2059;48.538;12.146;2023-08-30T10:22:53;8.23;;;7.73;;
4089;SDS011;2059;48.538;12.146;2023-08-30T10:27:57;5.17;;;4.87;;
4089;SDS011;2059;48.538;12.146;2023-08-30T10:33:01;8.50;;;8.00;;
4089;SDS011;2059;48.538;12.146;2023-08-30T10:38:03;9.33;;;8.83;;
4089;SDS011;2059;48.538;12.146;2023-08-30T10:43:05;9.53;;;9.03;;
4089;SDS011;2059;48.538;12.146;2023-08-30T10:48:08;8.70;;;8.20;;
4089;SDS011;2059;48.538;12.146;2023-08-30T10:53:12;8.10;;;7.70;;
4089;SDS011;2059;48.538;12.146;2023-08-30T10:58:14;7.77;;;7.33;;
4089;SDS011;2059;48.538;12.146;2023-08-30T11:03:17;8.80;;;8.30;;
4089;SDS011;2059;48.538;12.146;2023-08-30T11:08:19;9.40;;;8.80;;
4089;SDS011;2059;48.538;12.146;2023-08-30T11:13:23;8.40;;;8.00;;
4089;SDS011;2059;48.538;12.146;2023-08-30T11:18:26;8.40;;;8.00;;
4089;SDS011;2059;48.538;12.146;2023-08-30T11:23:27;10.60;;;9.67;;
4089;SDS011;2059;48.538;12.146;2023-08-30T11:28:29;9.00;;;8.50;;
4089;SDS011;2059;48.538;12.146;2023-08-30T11:33:33;8.67;;;8.17;;
4089;SDS011;2059;48.538;12.146;2023-08-30T11:38:34;9.20;;;8.70;;
4089;SDS011;2059;48.538;12.146;2023-08-30T11:43:38;7.07;;;6.67;;
4089;SDS011;2059;48.538;12.146;2023-08-30T11:48:42;10.40;;;9.80;;
4089;SDS011;2059;48.538;12.146;2023-08-30T11:53:45;7.00;;;6.60;;
4089;SDS011;2059;48.538;12.146;2023-08-30T11:58:47;7.70;;;7.20;;
4089;SDS011;2059;48.538;12.146;2023-08-30T12:03:50;8.63;;;8.13;;
4089;SDS011;2059;48.538;12.146;2023-08-30T12:08:57;6.70;;;6.30;;
4089;SDS011;2059;48.538;12.146;2023-08-30T12:14:01;6.43;;;6.13;;
4089;SDS011;2059;48.538;12.146;2023-08-30T12:19:10;8.80;;;8.30;;
4089;SDS011;2059;48.538;12.146;2023-08-30T12:24:13;7.13;;;6.73;;
4089;SDS011;2059;48.538;12.146;2023-08-30T12:29:15;9.50;;;9.00;;
4089;SDS011;2059;48.538;12.146;2023-08-30T12:34:18;8.20;;;7.80;;
4089;SDS011;2059;48.538;12.146;2023-08-30T12:39:19;5.60;;;5.40;;
4089;SDS011;2059;48.538;12.146;2023-08-30T12:44:21;6.27;;;5.97;;
4089;SDS011;2059;48.538;12.146;2023-08-30T12:49:24;5.80;;;5.50;;
4089;SDS011;2059;48.538;12.146;2023-08-30T12:54:26;6.00;;;5.67;;
4089;SDS011;2059;48.538;12.146;2023-08-30T12:59:27;5.57;;;5.27;;
4089;SDS011;2059;48.538;12.146;2023-08-30T13:04:31;5.43;;;5.13;;
4089;SDS011;2059;48.538;12.146;2023-08-30T13:09:32;5.53;;;5.33;;
4089;SDS011;2059;48.538;12.146;2023-08-30T13:14:34;6.17;;;5.87;;
4089;SDS011;2059;48.538;12.146;2023-08-30T13:19:37;7.53;;;7.10;;
4089;SDS011;2059;48.538;12.146;2023-08-30T13:24:39;7.30;;;6.90;;
4089;SDS011;2059;48.538;12.146;2023-08-30T13:29:40;6.50;;;6.10;;
4089;SDS011;2059;48.538;12.146;2023-08-30T13:34:43;6.83;;;6.43;;
4089;SDS011;2059;48.538;12.146;2023-08-30T13:39:46;5.90;;;5.60;;
4089;SDS011;2059;48.538;12.146;2023-08-30T13:44:50;6.80;;;6.40;;
4089;SDS011;2059;48.538;12.146;2023-08-30T13:49:53;6.30;;;6.00;;
4089;SDS011;2059;48.538;12.146;2023-08-30T13:54:55;6.50;;;6.10;;
4089;SDS011;2059;48.538;12.146;2023-08-30T13:59:57;6.33;;;6.03;;
4089;SDS011;2059;48.538;12.146;2023-08-30T14:05:00;6.43;;;6.10;;
4089;SDS011;2059;48.538;12.146;2023-08-30T14:10:01;6.17;;;5.87;;
4089;SDS011;2059;48.538;12.146;2023-08-30T14:15:04;5.90;;;5.60;;
4089;SDS011;2059;48.538;12.146;2023-08-30T14:20:08;5.50;;;5.20;;
4089;SDS011;2059;48.538;12.146;2023-08-30T14:25:11;5.30;;;5.00;;
4089;SDS011;2059;48.538;12.146;2023-08-30T14:30:13;5.90;;;5.60;;
4089;SDS011;2059;48.538;12.146;2023-08-30T14:35:16;5.60;;;5.37;;
4089;SDS011;2059;48.538;12.146;2023-08-30T14:40:20;6.10;;;5.70;;
4089;SDS011;2059;48.538;12.146;2023-08-30T14:45:22;5.60;;;5.40;;
4089;SDS011;2059;48.538;12.146;2023-08-30T14:50:25;6.00;;;5.70;;
4089;SDS011;2059;48.538;12.146;2023-08-30T14:55:27;5.67;;;5.40;;
4089;SDS011;2059;48.538;12.146;2023-08-30T15:00:29;5.97;;;5.57;;
4089;SDS011;2059;48.538;12.146;2023-08-30T15:05:32;5.47;;;5.27;;
4089;SDS011;2059;48.538;12.146;2023-08-30T15:10:33;5.33;;;5.13;;
4089;SDS011;2059;48.538;12.146;2023-08-30T15:15:35;6.03;;;5.73;;
4089;SDS011;2059;48.538;12.146;2023-08-30T15:20:38;5.83;;;5.60;;
4089;SDS011;2059;48.538;12.146;2023-08-30T15:25:40;5.67;;;5.47;;
4089;SDS011;2059;48.538;12.146;2023-08-30T15:30:42;5.73;;;5.43;;
4089;SDS011;2059;48.538;12.146;2023-08-30T15:35:45;5.53;;;5.33;;
4089;SDS011;2059;48.538;12.146;2023-08-30T15:40:47;5.50;;;5.30;;
4089;SDS011;2059;48.538;12.146;2023-08-30T15:45:54;5.80;;;5.50;;
4089;SDS011;2059;48.538;12.146;2023-08-30T15:50:57;5.50;;;5.30;;
4089;SDS011;2059;48.538;12.146;2023-08-30T15:55:59;6.00;;;5.70;;
4089;SDS011;2059;48.538;12.146;2023-08-30T16:01:04;5.70;;;5.47;;
4089;SDS011;2059;48.538;12.146;2023-08-30T16:06:07;6.70;;;6.40;;
4089;SDS011;2059;48.538;12.146;2023-08-30T16:11:09;5.90;;;5.60;;
4089;SDS011;2059;48.538;12.146;2023-08-30T16:16:10;6.43;;;6.03;;
4089;SDS011;2059;48.538;12.146;2023-08-30T16:21:13;5.63;;;5.43;;
4089;SDS011;2059;48.538;12.146;2023-08-30T16:26:15;5.50;;;5.20;;
4089;SDS011;2059;48.538;12.146;2023-08-30T16:31:17;5.60;;;5.30;;
4089;SDS011;2059;48.538;12.146;2023-08-30T16:36:24;5.33;;;5.13;;
4089;SDS011;2059;48.538;12.146;2023-08-30T16:41:26;5.77;;;5.47;;
4089;SDS011;2059;48.538;12.146;2023-08-30T16:46:28;5.37;;;5.17;;
4089;SDS011;2059;48.538;12.146;2023-08-30T16:51:32;7.60;;;7.20;;
4089;SDS011;2059;48.538;12.146;2023-08-30T16:56:34;6.20;;;5.90;;
4089;SDS011;2059;48.538;12.146;2023-08-30T17:01:36;5.87;;;5.57;;
4089;SDS011;2059;48.538;12.146;2023-08-30T17:06:39;6.00;;;5.70;;
4089;SDS011;2059;48.538;12.146;2023-08-30T17:11:41;5.40;;;5.20;;
4089;SDS011;2059;48.538;12.146;2023-08-30T17:16:43;6.23;;;5.93;;
4089;SDS011;2059;48.538;12.146;2023-08-30T17:21:47;5.70;;;5.40;;
4089;SDS011;2059;48.538;12.146;2023-08-30T17:26:48;8.13;;;7.57;;
4089;SDS011;2059;48.538;12.146;2023-08-30T17:31:50;8.30;;;7.90;;
4089;SDS011;2059;48.538;12.146;2023-08-30T17:36:54;8.47;;;7.97;;
4089;SDS011;2059;48.538;12.146;2023-08-30T17:41:59;5.50;;;5.30;;
4089;SDS011;2059;48.538;12.146;2023-08-30T17:47:01;5.87;;;5.57;;
4089;SDS011;2059;48.538;12.146;2023-08-30T17:52:04;6.80;;;6.50;;
4089;SDS011;2059;48.538;12.146;2023-08-30T17:57:07;6.30;;;6.00;;
4089;SDS011;2059;48.538;12.146;2023-08-30T18:02:10;6.40;;;6.10;;
4089;SDS011;2059;48.538;12.146;2023-08-30T18:07:13;5.57;;;5.30;;
4089;SDS011;2059;48.538;12.146;2023-08-30T18:12:15;4.90;;;4.70;;
4089;SDS011;2059;48.538;12.146;2023-08-30T18:17:17;5.70;;;5.40;;
4089;SDS011;2059;48.538;12.146;2023-08-30T18:22:20;5.00;;;4.80;;
4089;SDS011;2059;48.538;12.146;2023-08-30T18:27:22;5.33;;;5.03;;
4089;SDS011;2059;48.538;12.146;2023-08-30T18:32:24;4.60;;;4.40;;
4089;SDS011;2059;48.538;12.146;2023-08-30T18:37:28;6.03;;;5.73;;
4089;SDS011;2059;48.538;12.146;2023-08-30T18:42:29;7.10;;;6.70;;
4089;SDS011;2059;48.538;12.146;2023-08-30T18:47:31;6.60;;;6.20;;
4089;SDS011;2059;48.538;12.146;2023-08-30T18:52:34;9.73;;;9.13;;
4089;SDS011;2059;48.538;12.146;2023-08-30T18:57:36;6.90;;;6.50;;
4089;SDS011;2059;48.538;12.146;2023-08-30T19:02:38;7.10;;;6.60;;
4089;SDS011;2059;48.538;12.146;2023-08-30T19:07:41;5.30;;;4.90;;
4089;SDS011;2059;48.538;12.146;2023-08-30T19:12:43;5.10;;;4.90;;
4089;SDS011;2059;48.538;12.146;2023-08-30T19:17:45;5.47;;;5.17;;
4089;SDS011;2059;48.538;12.146;2023-08-30T19:22:48;5.47;;;5.13;;
4089;SDS011;2059;48.538;12.146;2023-08-30T19:27:49;5.17;;;4.87;;
4089;SDS011;2059;48.538;12.146;2023-08-30T19:32:51;6.87;;;6.50;;
4089;SDS011;2059;48.538;12.146;2023-08-30T19:37:54;5.00;;;4.70;;
4089;SDS011;2059;48.538;12.146;2023-08-30T19:42:56;5.60;;;5.30;;
4089;SDS011;2059;48.538;12.146;2023-08-30T19:47:58;5.70;;;5.40;;
4089;SDS011;2059;48.538;12.146;2023-08-30T19:53:02;5.23;;;4.97;;
4089;SDS011;2059;48.538;12.146;2023-08-30T19:58:04;5.23;;;4.97;;
4089;SDS011;2059;48.538;12.146;2023-08-30T20:03:06;4.53;;;4.33;;
4089;SDS011;2059;48.538;12.146;2023-08-30T20:08:09;4.83;;;4.60;;
4089;SDS011;2059;48.538;12.146;2023-08-30T20:13:11;4.80;;;4.60;;
4089;SDS011;2059;48.538;12.146;2023-08-30T20:18:13;5.17;;;4.90;;
4089;SDS011;2059;48.538;12.146;2023-08-30T20:23:16;5.40;;;5.13;;
4089;SDS011;2059;48.538;12.146;2023-08-30T20:28:18;4.90;;;4.60;;
4089;SDS011;2059;48.538;12.146;2023-08-30T20:33:19;5.27;;;5.07;;
4089;SDS011;2059;48.538;12.146;2023-08-30T20:38:23;5.27;;;4.97;;
4089;SDS011;2059;48.538;12.146;2023-08-30T20:43:27;4.87;;;4.47;;
4089;SDS011;2059;48.538;12.146;2023-08-30T20:48:29;4.90;;;4.70;;
4089;SDS011;2059;48.538;12.146;2023-08-30T20:53:32;4.40;;;4.20;;
4089;SDS011;2059;48.538;12.146;2023-08-30T20:58:36;4.93;;;4.60;;
4089;SDS011;2059;48.538;12.146;2023-08-30T21:03:39;4.20;;;4.00;;
4089;SDS011;2059;48.538;12.146;2023-08-30T21:08:43;4.43;;;4.23;;
4089;SDS011;2059;48.538;12.146;2023-08-30T21:13:45;4.53;;;4.33;;
4089;SDS011;2059;48.538;12.146;2023-08-30T21:18:47;4.60;;;4.40;;
4089;SDS011;2059;48.538;12.146;2023-08-30T21:23:50;4.40;;;4.20;;
4089;SDS011;2059;48.538;12.146;2023-08-30T21:28:52;5.77;;;5.47;;
4089;SDS011;2059;48.538;12.146;2023-08-30T21:33:54;4.23;;;3.83;;
4089;SDS011;2059;48.538;12.146;2023-08-30T21:38:57;4.30;;;4.10;;
4089;SDS011;2059;48.538;12.146;2023-08-30T21:43:59;4.00;;;3.80;;
4089;SDS011;2059;48.538;12.146;2023-08-30T21:49:01;3.87;;;3.77;;
4089;SDS011;2059;48.538;12.146;2023-08-30T21:54:05;3.60;;;3.40;;
4089;SDS011;2059;48.538;12.146;2023-08-30T21:59:07;3.90;;;3.80;;
4089;SDS011;2059;48.538;12.146;2023-08-30T22:04:09;3.63;;;3.43;;
4089;SDS011;2059;48.538;12.146;2023-08-30T22:09:12;3.73;;;3.63;;
4089;SDS011;2059;48.538;12.146;2023-08-30T22:14:14;4.80;;;4.60;;
4089;SDS011;2059;48.538;12.146;2023-08-30T22:19:16;4.03;;;3.83;;
4089;SDS011;2059;48.538;12.146;2023-08-30T22:24:20;4.30;;;4.10;;
4089;SDS011;2059;48.538;12.146;2023-08-30T22:29:21;4.00;;;3.80;;
4089;SDS011;2059;48.538;12.146;2023-08-30T22:34:23;4.20;;;4.00;;
4089;SDS011;2059;48.538;12.146;2023-08-30T22:39:27;3.87;;;3.77;;
4089;SDS011;2059;48.538;12.146;2023-08-30T22:44:29;4.27;;;4.07;;
4089;SDS011;2059;48.538;12.146;2023-08-30T22:49:31;3.80;;;3.60;;
4089;SDS011;2059;48.538;12.146;2023-08-30T22:54:34;4.07;;;3.90;;
4089;SDS011;2059;48.538;12.146;2023-08-30T22:59:36;4.40;;;4.20;;
4089;SDS011;2059;48.538;12.146;2023-08-30T23:04:38;5.27;;;5.07;;
4089;SDS011;2059;48.538;12.146;2023-08-30T23:09:41;5.40;;;5.10;;
4089;SDS011;2059;48.538;12.146;2023-08-30T23:14:43;5.20;;;5.00;;
4089;SDS011;2059;48.538;12.146;2023-08-30T23:19:45;3.90;;;3.80;;
4089;SDS011;2059;48.538;12.146;2023-08-30T23:24:48;5.73;;;5.43;;
4089;SDS011;2059;48.538;12.146;2023-08-30T23:29:51;5.50;;;5.20;;
4089;SDS011;2059;48.538;12.146;2023-08-30T23:34:53;5.60;;;5.30;;
4089;SDS011;2059;48.538;12.146;2023-08-30T23:39:57;5.27;;;5.07;;
4089;SDS011;2059;48.538;12.146;2023-08-30T23:44:59;5.10;;;4.90;;
4089;SDS011;2059;48.538;12.146;2023-08-30T23:50:00;4.90;;;4.70;;
4089;SDS011;2059;48.538;12.146;2023-08-30T23:55:05;5.57;;;5.33;;
